sensor_id;sensor_type;location;lat;lon;timestamp;pressure;altitude;pressure_sealevel;temperature;humidity
77749;BME280;66938;52.084;5.228;2023-05-07T00:00:57;101752.0;;;15.95;78.7
77749;BME280;66938;52.084;5.228;2023-05-07T00:02:35;101744.0;;;15.97;78.58
77749;BME280;66938;52.084;5.228;2023-05-07T00:05:47;101746.0;;;15.92;78.75
77749;BME280;66938;52.084;5.228;2023-05-07T00:07:23;101751.0;;;15.89;78.66
77749;BME280;66938;52.084;5.228;2023-05-07T00:08:59;101752.0;;;15.78;79.06
77749;BME280;66938;52.084;5.228;2023-05-07T00:12:12;101757.0;;;15.78;79.13
77749;BME280;66938;52.084;5.228;2023-05-07T00:13:48;101755.0;;;15.76;79.09
77749;BME280;66938;52.084;5.228;2023-05-07T00:15:25;101756.0;;;15.8;79.0
77749;BME280;66938;52.084;5.228;2023-05-07T00:18:39;101758.0;;;15.75;79.19
77749;BME280;66938;52.084;5.228;2023-05-07T00:20:15;101749.0;;;15.83;78.92
77749;BME280;66938;52.084;5.228;2023-05-07T00:21:51;101752.0;;;15.87;78.7
77749;BME280;66938;52.084;5.228;2023-05-07T00:23:27;101750.0;;;15.89;78.62
77749;BME280;66938;52.084;5.228;2023-05-07T00:26:41;101747.0;;;15.88;78.72
77749;BME280;66938;52.084;5.228;2023-05-07T00:28:18;101750.0;;;15.85;78.75
77749;BME280;66938;52.084;5.228;2023-05-07T00:29:55;101747.0;;;15.73;79.23
77749;BME280;66938;52.084;5.228;2023-05-07T00:33:08;101747.0;;;15.75;79.19
77749;BME280;66938;52.084;5.228;2023-05-07T00:34:44;101748.0;;;15.66;79.7
77749;BME280;66938;52.084;5.228;2023-05-07T00:36:21;101747.0;;;15.59;79.61
77749;BME280;66938;52.084;5.228;2023-05-07T00:39:34;101746.0;;;15.6;79.89
77749;BME280;66938;52.084;5.228;2023-05-07T00:41:11;101742.0;;;15.64;79.58
77749;BME280;66938;52.084;5.228;2023-05-07T00:42:48;101743.0;;;15.64;79.67
77749;BME280;66938;52.084;5.228;2023-05-07T00:44:24;101741.0;;;15.57;79.58
77749;BME280;66938;52.084;5.228;2023-05-07T00:47:37;101745.0;;;15.55;80.05
77749;BME280;66938;52.084;5.228;2023-05-07T00:49:15;101741.0;;;15.62;80.05
77749;BME280;66938;52.084;5.228;2023-05-07T00:50:52;101738.0;;;15.56;80.2
77749;BME280;66938;52.084;5.228;2023-05-07T00:54:06;101738.0;;;15.5;80.44
77749;BME280;66938;52.084;5.228;2023-05-07T00:55:43;101742.0;;;15.5;80.34
77749;BME280;66938;52.084;5.228;2023-05-07T00:57:20;101737.0;;;15.55;80.44
77749;BME280;66938;52.084;5.228;2023-05-07T01:00:33;101737.0;;;15.53;80.59
77749;BME280;66938;52.084;5.228;2023-05-07T01:02:10;101740.0;;;15.51;80.73
77749;BME280;66938;52.084;5.228;2023-05-07T01:03:47;101736.0;;;15.49;80.73
77749;BME280;66938;52.084;5.228;2023-05-07T01:05:23;101734.0;;;15.54;80.52
77749;BME280;66938;52.084;5.228;2023-05-07T01:08:39;101735.0;;;15.5;80.67
77749;BME280;66938;52.084;5.228;2023-05-07T01:10:17;101736.0;;;15.45;80.86
77749;BME280;66938;52.084;5.228;2023-05-07T01:11:55;101736.0;;;15.44;80.8
77749;BME280;66938;52.084;5.228;2023-05-07T01:15:11;101739.0;;;15.42;80.86
77749;BME280;66938;52.084;5.228;2023-05-07T01:16:48;101739.0;;;15.34;81.06
77749;BME280;66938;52.084;5.228;2023-05-07T01:18:25;101739.0;;;15.39;80.92
77749;BME280;66938;52.084;5.228;2023-05-07T01:20:04;101734.0;;;15.41;81.05
77749;BME280;66938;52.084;5.228;2023-05-07T01:23:22;101738.0;;;15.4;80.99
77749;BME280;66938;52.084;5.228;2023-05-07T01:25:00;101737.0;;;15.37;81.05
77749;BME280;66938;52.084;5.228;2023-05-07T01:26:37;101736.0;;;15.4;80.95
77749;BME280;66938;52.084;5.228;2023-05-07T01:29:50;101742.0;;;15.38;80.98
77749;BME280;66938;52.084;5.228;2023-05-07T01:31:26;101740.0;;;15.36;81.05
77749;BME280;66938;52.084;5.228;2023-05-07T01:33:06;101738.0;;;15.43;80.84
77749;BME280;66938;52.084;5.228;2023-05-07T01:34:45;101739.0;;;15.39;81.14
77749;BME280;66938;52.084;5.228;2023-05-07T01:38:03;101744.0;;;15.36;81.27
77749;BME280;66938;52.084;5.228;2023-05-07T01:39:40;101741.0;;;15.4;81.05
77749;BME280;66938;52.084;5.228;2023-05-07T01:41:17;101740.0;;;15.45;80.94
77749;BME280;66938;52.084;5.228;2023-05-07T01:44:30;101745.0;;;15.37;81.16
77749;BME280;66938;52.084;5.228;2023-05-07T01:46:07;101746.0;;;15.37;81.22
77749;BME280;66938;52.084;5.228;2023-05-07T01:47:44;101745.0;;;15.29;81.75
77749;BME280;66938;52.084;5.228;2023-05-07T01:49:20;101740.0;;;15.35;81.53
77749;BME280;66938;52.084;5.228;2023-05-07T01:52:34;101740.0;;;15.29;81.91
77749;BME280;66938;52.084;5.228;2023-05-07T01:54:12;101739.0;;;15.28;82.16
77749;BME280;66938;52.084;5.228;2023-05-07T01:55:48;101734.0;;;15.31;82.06
77749;BME280;66938;52.084;5.228;2023-05-07T01:59:00;101733.0;;;15.44;81.52
77749;BME280;66938;52.084;5.228;2023-05-07T02:00:37;101733.0;;;15.48;81.31
77749;BME280;66938;52.084;5.228;2023-05-07T02:02:13;101736.0;;;15.38;81.73
77749;BME280;66938;52.084;5.228;2023-05-07T02:05:26;101732.0;;;15.37;81.75
77749;BME280;66938;52.084;5.228;2023-05-07T02:07:02;101735.0;;;15.4;81.73
77749;BME280;66938;52.084;5.228;2023-05-07T02:08:38;101734.0;;;15.43;81.72
77749;BME280;66938;52.084;5.228;2023-05-07T02:10:14;101731.0;;;15.53;81.41
77749;BME280;66938;52.084;5.228;2023-05-07T02:13:29;101723.0;;;15.56;81.24
77749;BME280;66938;52.084;5.228;2023-05-07T02:15:06;101727.0;;;15.51;81.3
77749;BME280;66938;52.084;5.228;2023-05-07T02:16:43;101722.0;;;15.44;81.55
77749;BME280;66938;52.084;5.228;2023-05-07T02:19:55;101720.0;;;15.39;81.87
77749;BME280;66938;52.084;5.228;2023-05-07T02:21:31;101715.0;;;15.39;81.8
77749;BME280;66938;52.084;5.228;2023-05-07T02:23:07;101719.0;;;15.47;81.41
77749;BME280;66938;52.084;5.228;2023-05-07T02:26:20;101718.0;;;15.55;81.06
77749;BME280;66938;52.084;5.228;2023-05-07T02:27:57;101716.0;;;15.55;80.83
77749;BME280;66938;52.084;5.228;2023-05-07T02:29:33;101719.0;;;15.54;80.83
77749;BME280;66938;52.084;5.228;2023-05-07T02:31:09;101720.0;;;15.54;80.83
77749;BME280;66938;52.084;5.228;2023-05-07T02:34:21;101720.0;;;15.55;80.53
77749;BME280;66938;52.084;5.228;2023-05-07T02:36:05;101716.0;;;15.57;80.48
77749;BME280;66938;52.084;5.228;2023-05-07T02:37:41;101716.0;;;15.42;80.69
77749;BME280;66938;52.084;5.228;2023-05-07T02:40:54;101720.0;;;15.35;81.05
77749;BME280;66938;52.084;5.228;2023-05-07T02:42:31;101724.0;;;15.33;81.05
77749;BME280;66938;52.084;5.228;2023-05-07T02:44:07;101728.0;;;15.34;80.69
77749;BME280;66938;52.084;5.228;2023-05-07T02:45:44;101732.0;;;15.26;80.91
77749;BME280;66938;52.084;5.228;2023-05-07T02:48:56;101730.0;;;15.22;81.37
77749;BME280;66938;52.084;5.228;2023-05-07T02:50:33;101730.0;;;15.29;81.24
77749;BME280;66938;52.084;5.228;2023-05-07T02:52:09;101730.0;;;15.3;81.41
77749;BME280;66938;52.084;5.228;2023-05-07T02:55:21;101730.0;;;15.28;81.61
77749;BME280;66938;52.084;5.228;2023-05-07T02:56:57;101733.0;;;15.27;81.58
77749;BME280;66938;52.084;5.228;2023-05-07T02:58:34;101731.0;;;15.25;81.73
77749;BME280;66938;52.084;5.228;2023-05-07T03:01:48;101726.0;;;15.28;81.47
77749;BME280;66938;52.084;5.228;2023-05-07T03:03:24;101723.0;;;15.28;81.33
77749;BME280;66938;52.084;5.228;2023-05-07T03:05:00;101719.0;;;15.33;81.09
77749;BME280;66938;52.084;5.228;2023-05-07T03:08:12;101713.0;;;15.22;81.61
77749;BME280;66938;52.084;5.228;2023-05-07T03:09:49;101715.0;;;15.15;82.1
77749;BME280;66938;52.084;5.228;2023-05-07T03:11:25;101712.0;;;15.15;81.87
77749;BME280;66938;52.084;5.228;2023-05-07T03:13:01;101717.0;;;15.06;82.14
77749;BME280;66938;52.084;5.228;2023-05-07T03:16:15;101715.0;;;14.98;82.25
77749;BME280;66938;52.084;5.228;2023-05-07T03:17:51;101721.0;;;14.96;82.12
77749;BME280;66938;52.084;5.228;2023-05-07T03:19:27;101723.0;;;14.9;82.3
77749;BME280;66938;52.084;5.228;2023-05-07T03:22:40;101721.0;;;14.9;82.6
77749;BME280;66938;52.084;5.228;2023-05-07T03:24:17;101720.0;;;14.89;82.69
77749;BME280;66938;52.084;5.228;2023-05-07T03:25:53;101720.0;;;14.88;82.62
77749;BME280;66938;52.084;5.228;2023-05-07T03:29:05;101724.0;;;14.87;82.26
77749;BME280;66938;52.084;5.228;2023-05-07T03:30:41;101721.0;;;14.84;82.54
77749;BME280;66938;52.084;5.228;2023-05-07T03:32:17;101720.0;;;14.86;82.54
77749;BME280;66938;52.084;5.228;2023-05-07T03:33:56;101723.0;;;14.81;82.63
77749;BME280;66938;52.084;5.228;2023-05-07T03:37:09;101723.0;;;14.79;82.95
77749;BME280;66938;52.084;5.228;2023-05-07T03:38:45;101717.0;;;14.75;83.08
77749;BME280;66938;52.084;5.228;2023-05-07T03:40:21;101721.0;;;14.79;82.93
77749;BME280;66938;52.084;5.228;2023-05-07T03:43:34;101722.0;;;14.74;83.22
77749;BME280;66938;52.084;5.228;2023-05-07T03:45:11;101724.0;;;14.82;82.79
77749;BME280;66938;52.084;5.228;2023-05-07T03:46:47;101722.0;;;14.84;82.63
77749;BME280;66938;52.084;5.228;2023-05-07T03:49:59;101725.0;;;14.8;82.52
77749;BME280;66938;52.084;5.228;2023-05-07T03:51:35;101722.0;;;14.83;82.46
77749;BME280;66938;52.084;5.228;2023-05-07T03:53:12;101718.0;;;14.89;82.14
77749;BME280;66938;52.084;5.228;2023-05-07T03:54:49;101715.0;;;14.88;82.1
77749;BME280;66938;52.084;5.228;2023-05-07T03:58:01;101717.0;;;14.84;82.32
77749;BME280;66938;52.084;5.228;2023-05-07T03:59:37;101719.0;;;14.81;82.62
77749;BME280;66938;52.084;5.228;2023-05-07T04:01:13;101724.0;;;14.74;83.0
77749;BME280;66938;52.084;5.228;2023-05-07T04:04:25;101731.0;;;14.73;82.98
77749;BME280;66938;52.084;5.228;2023-05-07T04:06:02;101728.0;;;14.75;83.08
77749;BME280;66938;52.084;5.228;2023-05-07T04:07:38;101726.0;;;14.8;82.98
77749;BME280;66938;52.084;5.228;2023-05-07T04:10:54;101733.0;;;14.82;83.1
77749;BME280;66938;52.084;5.228;2023-05-07T04:12:31;101733.0;;;14.88;83.15
77749;BME280;66938;52.084;5.228;2023-05-07T04:14:07;101730.0;;;14.93;82.93
77749;BME280;66938;52.084;5.228;2023-05-07T04:15:43;101727.0;;;14.95;82.79
77749;BME280;66938;52.084;5.228;2023-05-07T04:18:55;101733.0;;;14.97;82.76
77749;BME280;66938;52.084;5.228;2023-05-07T04:20:33;101737.0;;;15.05;82.56
77749;BME280;66938;52.084;5.228;2023-05-07T04:22:12;101733.0;;;15.01;82.67
77749;BME280;66938;52.084;5.228;2023-05-07T04:25:25;101734.0;;;14.99;82.73
77749;BME280;66938;52.084;5.228;2023-05-07T04:27:01;101735.0;;;14.98;82.82
77749;BME280;66938;52.084;5.228;2023-05-07T04:28:38;101740.0;;;14.97;82.78
77749;BME280;66938;52.084;5.228;2023-05-07T04:31:50;101746.0;;;14.98;82.74
77749;BME280;66938;52.084;5.228;2023-05-07T04:33:27;101742.0;;;14.94;82.82
77749;BME280;66938;52.084;5.228;2023-05-07T04:35:03;101745.0;;;15.07;82.61
77749;BME280;66938;52.084;5.228;2023-05-07T04:36:40;101735.0;;;15.03;82.79
77749;BME280;66938;52.084;5.228;2023-05-07T04:39:53;101741.0;;;14.97;82.93
77749;BME280;66938;52.084;5.228;2023-05-07T04:41:30;101741.0;;;14.95;83.27
77749;BME280;66938;52.084;5.228;2023-05-07T04:43:05;101742.0;;;15.07;82.89
77749;BME280;66938;52.084;5.228;2023-05-07T04:46:20;101747.0;;;15.1;82.71
77749;BME280;66938;52.084;5.228;2023-05-07T04:47:56;101744.0;;;15.09;82.86
77749;BME280;66938;52.084;5.228;2023-05-07T04:49:32;101747.0;;;15.1;82.94
77749;BME280;66938;52.084;5.228;2023-05-07T04:52:44;101745.0;;;15.1;82.98
77749;BME280;66938;52.084;5.228;2023-05-07T04:54:20;101750.0;;;15.1;83.02
77749;BME280;66938;52.084;5.228;2023-05-07T04:55:57;101745.0;;;15.06;83.2
77749;BME280;66938;52.084;5.228;2023-05-07T04:57:33;101744.0;;;15.12;83.07
77749;BME280;66938;52.084;5.228;2023-05-07T05:00:46;101745.0;;;15.12;82.99
77749;BME280;66938;52.084;5.228;2023-05-07T05:02:22;101744.0;;;15.16;82.9
77749;BME280;66938;52.084;5.228;2023-05-07T05:03:58;101748.0;;;15.09;83.17
77749;BME280;66938;52.084;5.228;2023-05-07T05:07:11;101748.0;;;15.19;82.94
77749;BME280;66938;52.084;5.228;2023-05-07T05:08:47;101748.0;;;15.14;83.14
77749;BME280;66938;52.084;5.228;2023-05-07T05:10:23;101747.0;;;15.2;82.98
77749;BME280;66938;52.084;5.228;2023-05-07T05:13:35;101748.0;;;15.33;82.44
77749;BME280;66938;52.084;5.228;2023-05-07T05:15:12;101755.0;;;15.28;82.58
77749;BME280;66938;52.084;5.228;2023-05-07T05:16:48;101755.0;;;15.34;82.46
77749;BME280;66938;52.084;5.228;2023-05-07T05:18:25;101755.0;;;15.34;82.31
77749;BME280;66938;52.084;5.228;2023-05-07T05:21:37;101756.0;;;15.35;82.47
77749;BME280;66938;52.084;5.228;2023-05-07T05:23:13;101757.0;;;15.41;82.15
77749;BME280;66938;52.084;5.228;2023-05-07T05:24:49;101755.0;;;15.47;81.83
77749;BME280;66938;52.084;5.228;2023-05-07T05:28:01;101763.0;;;15.39;81.55
77749;BME280;66938;52.084;5.228;2023-05-07T05:29:37;101777.0;;;15.31;81.8
77749;BME280;66938;52.084;5.228;2023-05-07T05:31:14;101776.0;;;15.32;81.95
77749;BME280;66938;52.084;5.228;2023-05-07T05:34:26;101786.0;;;15.31;82.02
77749;BME280;66938;52.084;5.228;2023-05-07T05:36:02;101785.0;;;15.32;82.11
77749;BME280;66938;52.084;5.228;2023-05-07T05:37:39;101783.0;;;15.35;82.07
77749;BME280;66938;52.084;5.228;2023-05-07T05:40:53;101782.0;;;15.47;81.59
77749;BME280;66938;52.084;5.228;2023-05-07T05:42:30;101780.0;;;15.51;81.44
77749;BME280;66938;52.084;5.228;2023-05-07T05:44:06;101780.0;;;15.56;81.36
77749;BME280;66938;52.084;5.228;2023-05-07T05:45:42;101780.0;;;15.5;81.55
77749;BME280;66938;52.084;5.228;2023-05-07T05:48:54;101788.0;;;15.47;81.8
77749;BME280;66938;52.084;5.228;2023-05-07T05:50:31;101790.0;;;15.48;81.86
77749;BME280;66938;52.084;5.228;2023-05-07T05:52:07;101791.0;;;15.48;81.58
77749;BME280;66938;52.084;5.228;2023-05-07T05:55:20;101791.0;;;15.43;81.94
77749;BME280;66938;52.084;5.228;2023-05-07T05:56:56;101793.0;;;15.46;81.95
77749;BME280;66938;52.084;5.228;2023-05-07T05:58:33;101798.0;;;15.52;81.73
77749;BME280;66938;52.084;5.228;2023-05-07T06:01:46;101796.0;;;15.58;81.42
77749;BME280;66938;52.084;5.228;2023-05-07T06:03:23;101791.0;;;15.66;81.02
77749;BME280;66938;52.084;5.228;2023-05-07T06:04:59;101793.0;;;15.66;80.98
77749;BME280;66938;52.084;5.228;2023-05-07T06:06:35;101794.0;;;15.63;81.23
77749;BME280;66938;52.084;5.228;2023-05-07T06:09:47;101796.0;;;15.7;80.94
77749;BME280;66938;52.084;5.228;2023-05-07T06:11:23;101792.0;;;15.81;80.56
77749;BME280;66938;52.084;5.228;2023-05-07T06:12:59;101796.0;;;15.82;80.48
77749;BME280;66938;52.084;5.228;2023-05-07T06:16:12;101796.0;;;15.79;80.72
77749;BME280;66938;52.084;5.228;2023-05-07T06:17:49;101797.0;;;15.87;80.42
77749;BME280;66938;52.084;5.228;2023-05-07T06:19:25;101794.0;;;15.94;80.17
77749;BME280;66938;52.084;5.228;2023-05-07T06:22:38;101805.0;;;15.97;80.08
77749;BME280;66938;52.084;5.228;2023-05-07T06:24:15;101805.0;;;16.04;79.95
77749;BME280;66938;52.084;5.228;2023-05-07T06:25:51;101803.0;;;15.92;80.22
77749;BME280;66938;52.084;5.228;2023-05-07T06:27:28;101805.0;;;15.98;80.28
77749;BME280;66938;52.084;5.228;2023-05-07T06:30:40;101805.0;;;16.07;80.12
77749;BME280;66938;52.084;5.228;2023-05-07T06:32:18;101805.0;;;16.05;79.98
77749;BME280;66938;52.084;5.228;2023-05-07T06:33:55;101808.0;;;16.14;79.77
77749;BME280;66938;52.084;5.228;2023-05-07T06:37:07;101809.0;;;16.11;80.09
77749;BME280;66938;52.084;5.228;2023-05-07T06:38:43;101810.0;;;16.25;79.47
77749;BME280;66938;52.084;5.228;2023-05-07T06:40:19;101813.0;;;16.25;79.47
77749;BME280;66938;52.084;5.228;2023-05-07T06:43:32;101815.0;;;16.32;79.3
77749;BME280;66938;52.084;5.228;2023-05-07T06:45:10;101815.0;;;16.25;79.38
77749;BME280;66938;52.084;5.228;2023-05-07T06:46:46;101819.0;;;16.22;79.92
77749;BME280;66938;52.084;5.228;2023-05-07T06:48:22;101817.0;;;16.25;80.11
77749;BME280;66938;52.084;5.228;2023-05-07T06:51:34;101820.0;;;16.2;80.56
77749;BME280;66938;52.084;5.228;2023-05-07T06:53:10;101820.0;;;16.31;80.36
77749;BME280;66938;52.084;5.228;2023-05-07T06:54:47;101821.0;;;16.29;79.59
77749;BME280;66938;52.084;5.228;2023-05-07T06:57:59;101823.0;;;16.37;79.56
77749;BME280;66938;52.084;5.228;2023-05-07T06:59:36;101827.0;;;16.45;79.14
77749;BME280;66938;52.084;5.228;2023-05-07T07:01:12;101825.0;;;16.48;78.48
77749;BME280;66938;52.084;5.228;2023-05-07T07:04:24;101823.0;;;16.52;78.48
77749;BME280;66938;52.084;5.228;2023-05-07T07:06:01;101821.0;;;16.54;78.24
77749;BME280;66938;52.084;5.228;2023-05-07T07:07:37;101816.0;;;16.63;77.88
77749;BME280;66938;52.084;5.228;2023-05-07T07:10:49;101821.0;;;16.56;78.39
77749;BME280;66938;52.084;5.228;2023-05-07T07:12:25;101824.0;;;16.55;78.78
77749;BME280;66938;52.084;5.228;2023-05-07T07:14:01;101825.0;;;16.55;78.83
77749;BME280;66938;52.084;5.228;2023-05-07T07:15:38;101827.0;;;16.5;79.17
77749;BME280;66938;52.084;5.228;2023-05-07T07:18:50;101825.0;;;16.59;79.06
77749;BME280;66938;52.084;5.228;2023-05-07T07:20:27;101822.0;;;16.61;78.7
77749;BME280;66938;52.084;5.228;2023-05-07T07:22:03;101823.0;;;16.61;78.64
77749;BME280;66938;52.084;5.228;2023-05-07T07:25:16;101821.0;;;16.56;79.33
77749;BME280;66938;52.084;5.228;2023-05-07T07:26:53;101819.0;;;16.61;78.89
77749;BME280;66938;52.084;5.228;2023-05-07T07:28:29;101820.0;;;16.57;79.33
77749;BME280;66938;52.084;5.228;2023-05-07T07:31:43;101818.0;;;16.54;79.58
77749;BME280;66938;52.084;5.228;2023-05-07T07:33:19;101818.0;;;16.64;79.47
77749;BME280;66938;52.084;5.228;2023-05-07T07:34:55;101818.0;;;16.53;79.8
77749;BME280;66938;52.084;5.228;2023-05-07T07:36:31;101823.0;;;16.72;79.41
77749;BME280;66938;52.084;5.228;2023-05-07T07:39:44;101823.0;;;16.72;79.11
77749;BME280;66938;52.084;5.228;2023-05-07T07:41:20;101815.0;;;16.77;78.72
77749;BME280;66938;52.084;5.228;2023-05-07T07:42:56;101817.0;;;16.95;77.97
77749;BME280;66938;52.084;5.228;2023-05-07T07:46:10;101814.0;;;16.97;77.77
77749;BME280;66938;52.084;5.228;2023-05-07T07:47:48;101816.0;;;16.95;78.03
77749;BME280;66938;52.084;5.228;2023-05-07T07:49:24;101820.0;;;16.84;79.06
77749;BME280;66938;52.084;5.228;2023-05-07T07:52:37;101827.0;;;16.89;79.19
77749;BME280;66938;52.084;5.228;2023-05-07T07:54:14;101830.0;;;16.75;79.99
77749;BME280;66938;52.084;5.228;2023-05-07T07:55:50;101835.0;;;16.88;79.63
77749;BME280;66938;52.084;5.228;2023-05-07T07:57:26;101831.0;;;17.07;78.55
77749;BME280;66938;52.084;5.228;2023-05-07T08:00:40;101832.0;;;17.09;78.55
77749;BME280;66938;52.084;5.228;2023-05-07T08:02:16;101832.0;;;16.95;78.87
77749;BME280;66938;52.084;5.228;2023-05-07T08:03:53;101833.0;;;16.93;79.39
77749;BME280;66938;52.084;5.228;2023-05-07T08:07:06;101831.0;;;17.06;78.75
77749;BME280;66938;52.084;5.228;2023-05-07T08:08:43;101830.0;;;17.22;77.92
77749;BME280;66938;52.084;5.228;2023-05-07T08:10:20;101825.0;;;17.27;78.17
77749;BME280;66938;52.084;5.228;2023-05-07T08:13:34;101827.0;;;17.39;77.86
77749;BME280;66938;52.084;5.228;2023-05-07T08:15:11;101828.0;;;17.48;77.25
77749;BME280;66938;52.084;5.228;2023-05-07T08:16:47;101826.0;;;17.55;76.91
77749;BME280;66938;52.084;5.228;2023-05-07T08:18:24;101827.0;;;17.62;76.73
77749;BME280;66938;52.084;5.228;2023-05-07T08:21:39;101826.0;;;17.7;76.11
77749;BME280;66938;52.084;5.228;2023-05-07T08:23:15;101831.0;;;17.71;76.3
77749;BME280;66938;52.084;5.228;2023-05-07T08:24:52;101830.0;;;17.7;76.69
77749;BME280;66938;52.084;5.228;2023-05-07T08:28:05;101826.0;;;17.55;77.55
77749;BME280;66938;52.084;5.228;2023-05-07T08:29:41;101830.0;;;17.59;77.75
77749;BME280;66938;52.084;5.228;2023-05-07T08:31:17;101833.0;;;17.59;77.72
77749;BME280;66938;52.084;5.228;2023-05-07T08:34:30;101830.0;;;17.71;77.08
77749;BME280;66938;52.084;5.228;2023-05-07T08:36:06;101831.0;;;17.79;76.66
77749;BME280;66938;52.084;5.228;2023-05-07T08:37:42;101830.0;;;17.87;76.36
77749;BME280;66938;52.084;5.228;2023-05-07T08:39:19;101831.0;;;17.91;76.06
77749;BME280;66938;52.084;5.228;2023-05-07T08:42:35;101828.0;;;17.91;76.17
77749;BME280;66938;52.084;5.228;2023-05-07T08:44:12;101835.0;;;18.02;75.74
77749;BME280;66938;52.084;5.228;2023-05-07T08:45:53;101836.0;;;18.04;75.77
77749;BME280;66938;52.084;5.228;2023-05-07T08:49:15;101834.0;;;18.06;75.81
77749;BME280;66938;52.084;5.228;2023-05-07T08:50:52;101840.0;;;18.11;75.91
77749;BME280;66938;52.084;5.228;2023-05-07T08:52:29;101840.0;;;18.16;75.55
77749;BME280;66938;52.084;5.228;2023-05-07T08:54:06;101843.0;;;17.96;76.52
77749;BME280;66938;52.084;5.228;2023-05-07T08:57:22;101841.0;;;18.12;76.27
77749;BME280;66938;52.084;5.228;2023-05-07T08:58:58;101838.0;;;18.02;77.16
77749;BME280;66938;52.084;5.228;2023-05-07T09:00:36;101845.0;;;18.16;76.78
77749;BME280;66938;52.084;5.228;2023-05-07T09:03:49;101844.0;;;18.25;76.61
77749;BME280;66938;52.084;5.228;2023-05-07T09:05:28;101846.0;;;18.39;76.08
77749;BME280;66938;52.084;5.228;2023-05-07T09:07:04;101847.0;;;18.29;76.08
77749;BME280;66938;52.084;5.228;2023-05-07T09:08:43;101848.0;;;18.38;75.37
77749;BME280;66938;52.084;5.228;2023-05-07T09:12:03;101847.0;;;18.45;75.08
77749;BME280;66938;52.084;5.228;2023-05-07T09:13:39;101841.0;;;18.56;74.64
77749;BME280;66938;52.084;5.228;2023-05-07T09:15:15;101848.0;;;18.63;74.7
77749;BME280;66938;52.084;5.228;2023-05-07T09:18:29;101851.0;;;18.7;74.58
77749;BME280;66938;52.084;5.228;2023-05-07T09:20:06;101855.0;;;18.68;73.81
77749;BME280;66938;52.084;5.228;2023-05-07T09:21:43;101850.0;;;18.79;73.59
77749;BME280;66938;52.084;5.228;2023-05-07T09:23:20;101847.0;;;18.7;74.47
77749;BME280;66938;52.084;5.228;2023-05-07T09:26:33;101851.0;;;18.77;74.27
77749;BME280;66938;52.084;5.228;2023-05-07T09:28:10;101853.0;;;19.0;72.98
77749;BME280;66938;52.084;5.228;2023-05-07T09:29:46;101855.0;;;19.06;73.3
77749;BME280;66938;52.084;5.228;2023-05-07T09:33:03;101852.0;;;19.09;73.27
77749;BME280;66938;52.084;5.228;2023-05-07T09:34:41;101850.0;;;19.27;72.19
77749;BME280;66938;52.084;5.228;2023-05-07T09:36:18;101846.0;;;19.29;71.8
77749;BME280;66938;52.084;5.228;2023-05-07T09:37:55;101848.0;;;19.41;71.23
77749;BME280;66938;52.084;5.228;2023-05-07T09:41:18;101851.0;;;19.34;71.66
77749;BME280;66938;52.084;5.228;2023-05-07T09:42:55;101851.0;;;19.43;71.67
77749;BME280;66938;52.084;5.228;2023-05-07T09:44:34;101855.0;;;19.34;71.97
77749;BME280;66938;52.084;5.228;2023-05-07T09:47:53;101855.0;;;19.43;71.11
77749;BME280;66938;52.084;5.228;2023-05-07T09:49:33;101847.0;;;19.47;70.52
77749;BME280;66938;52.084;5.228;2023-05-07T09:51:22;101853.0;;;19.43;71.0
77749;BME280;66938;52.084;5.228;2023-05-07T09:53:06;101853.0;;;19.53;70.69
77749;BME280;66938;52.084;5.228;2023-05-07T09:54:46;101851.0;;;19.5;70.88
77749;BME280;66938;52.084;5.228;2023-05-07T09:58:01;101858.0;;;19.62;70.03
77749;BME280;66938;52.084;5.228;2023-05-07T09:59:42;101853.0;;;19.56;71.37
77749;BME280;66938;52.084;5.228;2023-05-07T10:01:20;101858.0;;;19.57;69.61
77749;BME280;66938;52.084;5.228;2023-05-07T10:02:58;101864.0;;;19.78;67.55
77749;BME280;66938;52.084;5.228;2023-05-07T10:06:13;101863.0;;;19.95;66.61
77749;BME280;66938;52.084;5.228;2023-05-07T10:07:52;101864.0;;;19.97;68.33
77749;BME280;66938;52.084;5.228;2023-05-07T10:09:29;101860.0;;;19.86;68.53
77749;BME280;66938;52.084;5.228;2023-05-07T10:12:42;101860.0;;;20.11;67.77
77749;BME280;66938;52.084;5.228;2023-05-07T10:14:20;101859.0;;;20.27;65.69
77749;BME280;66938;52.084;5.228;2023-05-07T10:15:57;101858.0;;;20.36;66.48
77749;BME280;66938;52.084;5.228;2023-05-07T10:17:35;101858.0;;;20.41;65.87
77749;BME280;66938;52.084;5.228;2023-05-07T10:20:51;101857.0;;;20.48;65.92
77749;BME280;66938;52.084;5.228;2023-05-07T10:22:31;101855.0;;;20.39;67.05
77749;BME280;66938;52.084;5.228;2023-05-07T10:24:16;101855.0;;;20.34;66.85
77749;BME280;66938;52.084;5.228;2023-05-07T10:25:56;101855.0;;;20.51;66.73
77749;BME280;66938;52.084;5.228;2023-05-07T10:29:14;101856.0;;;20.65;66.31
77749;BME280;66938;52.084;5.228;2023-05-07T10:31:10;101852.0;;;20.65;66.74
77749;BME280;66938;52.084;5.228;2023-05-07T10:33:03;101853.0;;;20.7;66.56
77749;BME280;66938;52.084;5.228;2023-05-07T10:34:43;101850.0;;;20.86;65.41
77749;BME280;66938;52.084;5.228;2023-05-07T10:37:59;101852.0;;;21.03;65.33
77749;BME280;66938;52.084;5.228;2023-05-07T10:39:36;101848.0;;;21.14;62.39
77749;BME280;66938;52.084;5.228;2023-05-07T10:41:13;101847.0;;;21.25;61.46
77749;BME280;66938;52.084;5.228;2023-05-07T10:42:53;101855.0;;;21.39;61.7
77749;BME280;66938;52.084;5.228;2023-05-07T10:46:11;101855.0;;;21.37;61.8
77749;BME280;66938;52.084;5.228;2023-05-07T10:48:07;101857.0;;;21.42;61.86
77749;BME280;66938;52.084;5.228;2023-05-07T10:51:18;101863.0;;;21.41;62.29
77749;BME280;66938;52.084;5.228;2023-05-07T10:53:27;101862.0;;;21.48;62.34
77749;BME280;66938;52.084;5.228;2023-05-07T10:55:20;101856.0;;;21.61;60.56
77749;BME280;66938;52.084;5.228;2023-05-07T10:57:45;101855.0;;;21.67;59.99
77749;BME280;66938;52.084;5.228;2023-05-07T10:59:31;101851.0;;;21.62;61.32
77749;BME280;66938;52.084;5.228;2023-05-07T11:01:11;101852.0;;;21.65;60.0
77749;BME280;66938;52.084;5.228;2023-05-07T11:03:19;101849.0;;;21.62;61.7
77749;BME280;66938;52.084;5.228;2023-05-07T11:05:29;101849.0;;;21.82;61.0
77749;BME280;66938;52.084;5.228;2023-05-07T11:07:24;101849.0;;;21.93;61.93